createdAt,value
2017-04-15T00:00:13.113Z,91.85
2017-04-15T00:01:13.196Z,91.94
2017-04-15T00:02:13.165Z,92.51
2017-04-15T00:03:13.210Z,92.7
2017-04-15T00:04:13.215Z,92.61
2017-04-15T00:05:13.317Z,92.61
2017-04-15T00:06:13.289Z,92.22
2017-04-15T00:07:13.320Z,92.32
2017-04-15T00:08:13.345Z,92.8
2017-04-15T00:09:13.383Z,92.99
2017-04-15T00:10:13.401Z,92.99
2017-04-15T00:11:13.433Z,92.7
2017-04-15T00:12:13.466Z,92.51
2017-04-15T00:13:13.488Z,93.65
2017-04-15T00:14:13.526Z,93.55
2017-04-15T00:15:13.556Z,93.37
2017-04-15T00:16:13.581Z,93.27
2017-04-15T00:17:13.611Z,93.37
2017-04-15T00:18:13.644Z,93.18
2017-04-15T00:19:13.668Z,93.84
2017-04-15T00:20:13.700Z,93.84
2017-04-15T00:21:13.727Z,93.94
2017-04-15T00:22:13.765Z,93.84
2017-04-15T00:23:13.793Z,93.65
2017-04-15T00:24:13.825Z,93.84
2017-04-15T00:25:13.848Z,94.13
2017-04-15T00:26:13.867Z,93.65
2017-04-15T00:27:13.910Z,93.94
2017-04-15T00:28:13.942Z,93.84
2017-04-15T00:29:13.956Z,93.84
2017-04-15T00:30:14.001Z,94.51
2017-04-15T00:31:14.029Z,94.7
2017-04-15T00:32:14.058Z,94.42
2017-04-15T00:33:14.195Z,94.51
2017-04-15T00:34:14.122Z,94.32
2017-04-15T00:35:14.242Z,94.79
2017-04-15T00:36:14.178Z,94.42
2017-04-15T00:37:14.191Z,94.42
2017-04-15T00:38:14.234Z,94.32
2017-04-15T00:39:14.262Z,94.6
2017-04-15T00:40:14.300Z,94.42
2017-04-15T00:41:14.320Z,94.6
2017-04-15T00:42:14.373Z,94.7
2017-04-15T00:43:14.532Z,94.6
2017-04-15T00:44:14.405Z,94.6
2017-04-15T00:45:14.439Z,94.32
2017-04-15T00:46:14.473Z,94.7
2017-04-15T00:47:14.495Z,94.51
2017-04-15T00:48:14.533Z,94.32
2017-04-15T00:49:14.566Z,94.89
2017-04-15T00:50:14.694Z,94.6
2017-04-15T00:51:14.620Z,94.7
2017-04-15T00:52:14.649Z,94.79
2017-04-15T00:53:14.679Z,94.89
2017-04-15T00:54:14.712Z,94.89
2017-04-15T00:55:14.737Z,94.7
2017-04-15T00:56:14.768Z,95.08
2017-04-15T00:57:14.794Z,94.7
2017-04-15T00:58:14.830Z,94.98
2017-04-15T00:59:14.866Z,94.89
2017-04-15T01:00:14.906Z,95.17
2017-04-15T01:01:14.902Z,95.27
2017-04-15T01:02:14.944Z,94.79
2017-04-15T01:03:14.973Z,94.79
2017-04-15T01:04:15.007Z,95.17
2017-04-15T01:05:15.133Z,95.36
2017-04-15T01:06:15.058Z,94.98
2017-04-15T01:07:15.102Z,95.17
2017-04-15T01:08:15.112Z,94.89
2017-04-15T01:09:15.148Z,95.36
2017-04-15T01:10:15.185Z,95.94
2017-04-15T01:11:15.207Z,95.27
2017-04-15T01:12:15.238Z,95.56
2017-04-15T01:13:15.273Z,95.75
2017-04-15T01:14:15.306Z,95.46
2017-04-15T01:15:15.677Z,95.27
2017-04-15T01:16:15.357Z,95.46
2017-04-15T01:17:15.390Z,95.27
2017-04-15T01:18:15.416Z,95.75
2017-04-15T01:19:15.455Z,95.17
2017-04-15T01:20:15.579Z,95.17
2017-04-15T01:21:15.503Z,95.27
2017-04-15T01:22:15.536Z,94.89
2017-04-15T01:23:15.563Z,95.36
2017-04-15T01:24:15.600Z,95.56
2017-04-15T01:25:15.619Z,95.46
2017-04-15T01:26:15.656Z,95.75
2017-04-15T01:27:15.681Z,95.17
2017-04-15T01:28:15.712Z,95.27
2017-04-15T01:29:15.751Z,95.17
2017-04-15T01:30:15.756Z,95.36
2017-04-15T01:31:15.811Z,95.41
2017-04-15T01:32:15.837Z,95.08
2017-04-15T01:33:15.862Z,94.79
2017-04-15T01:34:15.893Z,95.08
2017-04-15T01:35:15.911Z,95.32
2017-04-15T01:36:15.949Z,95.56
2017-04-15T01:37:15.976Z,95.36
2017-04-15T01:38:16.006Z,95.46
2017-04-15T01:39:16.037Z,95.27
2017-04-15T01:40:16.069Z,95.75
2017-04-15T01:41:16.095Z,95.75
2017-04-15T01:42:16.123Z,95.36
2017-04-15T01:43:16.144Z,94.65
2017-04-15T01:44:16.189Z,95.17
2017-04-15T01:45:16.220Z,95.56
2017-04-15T01:46:16.232Z,95.94
2017-04-15T01:47:16.277Z,96.22
2017-04-15T01:48:16.302Z,96.12
2017-04-15T01:49:16.332Z,95.84
2017-04-15T01:50:16.364Z,96.08
2017-04-15T01:51:16.397Z,95.84
2017-04-15T01:52:16.425Z,95.65
2017-04-15T01:53:16.456Z,95.94
2017-04-15T01:54:16.493Z,95.84
2017-04-15T01:55:16.515Z,95.46
2017-04-15T01:56:16.537Z,95.46
2017-04-15T01:57:16.569Z,95.84
2017-04-15T01:58:16.597Z,95.94
2017-04-15T01:59:16.635Z,95.56
2017-04-15T02:00:16.664Z,95.41
2017-04-15T02:01:16.682Z,95.36
2017-04-15T02:02:16.723Z,94.7
2017-04-15T02:03:16.756Z,95.46
2017-04-15T02:04:16.777Z,96.03
2017-04-15T02:05:16.825Z,95.84
2017-04-15T02:06:16.829Z,95.36
2017-04-15T02:07:16.867Z,95.46
2017-04-15T02:08:16.898Z,95.27
2017-04-15T02:09:16.930Z,94.65
2017-04-15T02:10:16.960Z,94.98
2017-04-15T02:11:16.986Z,94.79
2017-04-15T02:12:17.023Z,94.79
2017-04-15T02:13:17.050Z,95.08
2017-04-15T02:14:17.076Z,94.89
2017-04-15T02:15:17.104Z,94.79
2017-04-15T02:16:17.136Z,94.65
2017-04-15T02:17:17.162Z,94.89
2017-04-15T02:18:17.195Z,94.42
2017-04-15T02:19:17.224Z,94.32
2017-04-15T02:20:17.239Z,94.6
2017-04-15T02:21:17.281Z,93.89
2017-04-15T02:22:17.317Z,94.37
2017-04-15T02:23:17.346Z,94.18
2017-04-15T02:24:17.374Z,95.03
2017-04-15T02:25:17.398Z,95.41
2017-04-15T02:26:17.432Z,95.32
2017-04-15T02:27:17.457Z,95.12
2017-04-15T02:28:17.493Z,95.22
2017-04-15T02:29:17.521Z,94.74
2017-04-15T02:30:17.552Z,94.93
2017-04-15T02:31:17.576Z,94.84
2017-04-15T02:32:17.608Z,95.03
2017-04-15T02:33:17.690Z,94.74
2017-04-15T02:34:17.665Z,95.22
2017-04-15T02:35:17.691Z,95.51
2017-04-15T02:36:17.728Z,95.22
2017-04-15T02:37:17.752Z,95.22
2017-04-15T02:38:17.802Z,94.84
2017-04-15T02:39:17.817Z,94.84
2017-04-15T02:40:17.836Z,95.03
2017-04-15T02:41:17.870Z,94.84
2017-04-15T02:42:17.903Z,94.65
2017-04-15T02:43:17.927Z,94.18
2017-04-15T02:44:17.958Z,94.84
2017-04-15T02:45:17.991Z,95.32
2017-04-15T02:46:18.021Z,95.41
2017-04-15T02:47:18.047Z,95.51
2017-04-15T02:48:18.074Z,96.03
2017-04-15T02:49:18.113Z,96.03
2017-04-15T02:50:18.130Z,96.31
2017-04-15T02:51:18.163Z,96.22
2017-04-15T02:52:18.204Z,96.69
2017-04-15T02:53:18.244Z,97.45
2017-04-15T02:54:18.252Z,97.64
2017-04-15T02:55:18.383Z,97.55
2017-04-15T02:56:18.310Z,98.31
2017-04-15T02:57:18.340Z,98.79
2017-04-15T02:58:18.375Z,98.97
2017-04-15T02:59:18.404Z,99.4
2017-04-15T03:00:18.420Z,98.92
2017-04-15T03:01:18.458Z,99.97
2017-04-15T03:02:18.488Z,99.99
2017-04-15T03:03:18.520Z,99.99
2017-04-15T03:04:18.547Z,99.87
2017-04-15T03:05:18.577Z,99.77
2017-04-15T03:06:18.601Z,99.77
2017-04-15T03:07:18.634Z,99.99
2017-04-15T03:08:18.662Z,99.99
2017-04-15T03:09:18.691Z,99.99
2017-04-15T03:10:18.723Z,99.99
2017-04-15T03:11:18.763Z,99.99
2017-04-15T03:12:18.775Z,99.99
2017-04-15T03:13:18.810Z,99.99
2017-04-15T03:14:18.837Z,99.99
2017-04-15T03:15:18.866Z,99.87
2017-04-15T03:16:18.901Z,99.99
2017-04-15T03:17:18.934Z,99.99
2017-04-15T03:18:18.942Z,99.99
2017-04-15T03:19:18.988Z,99.99
2017-04-15T03:20:19.012Z,99.99
2017-04-15T03:21:19.039Z,99.99
2017-04-15T03:22:19.071Z,99.99
2017-04-15T03:23:19.097Z,99.99
2017-04-15T03:24:19.128Z,99.99
2017-04-15T03:25:19.157Z,99.99
2017-04-15T03:26:19.184Z,99.99
2017-04-15T03:27:19.206Z,99.99
2017-04-15T03:28:19.229Z,99.99
2017-04-15T03:29:19.287Z,99.99
2017-04-15T03:30:19.322Z,99.99
2017-04-15T03:31:19.319Z,99.99
2017-04-15T03:32:19.362Z,99.99
2017-04-15T03:33:19.414Z,99.99
2017-04-15T03:34:19.434Z,99.99
2017-04-15T03:35:19.449Z,99.99
2017-04-15T03:36:19.473Z,99.99
2017-04-15T03:37:19.506Z,99.99
2017-04-15T03:38:19.535Z,99.99
2017-04-15T03:39:19.561Z,99.99
2017-04-15T03:40:19.579Z,99.99
2017-04-15T03:41:19.622Z,99.99
2017-04-15T03:42:19.649Z,99.99
2017-04-15T03:43:19.682Z,99.99
2017-04-15T03:44:19.710Z,99.99
2017-04-15T03:45:19.768Z,99.99
2017-04-15T03:46:19.761Z,99.99
2017-04-15T03:47:19.792Z,99.99
2017-04-15T03:48:19.828Z,99.99
2017-04-15T03:49:19.859Z,99.99
2017-04-15T03:50:19.879Z,99.99
2017-04-15T03:51:19.909Z,99.99
2017-04-15T03:52:19.935Z,99.99
2017-04-15T03:53:19.966Z,99.99
2017-04-15T03:54:19.995Z,99.99
2017-04-15T03:55:20.025Z,99.99
2017-04-15T03:56:20.049Z,99.99
2017-04-15T03:57:20.083Z,99.99
2017-04-15T03:58:20.110Z,99.99
2017-04-15T03:59:20.137Z,99.99
2017-04-15T04:00:20.330Z,99.99
2017-04-15T04:01:20.196Z,99.99
2017-04-15T04:02:20.230Z,99.99
2017-04-15T04:03:20.239Z,99.99
2017-04-15T04:04:20.281Z,99.99
2017-04-15T04:05:20.407Z,99.99
2017-04-15T04:06:20.334Z,99.99
2017-04-15T04:07:20.368Z,99.99
2017-04-15T04:08:20.396Z,99.99
2017-04-15T04:09:20.432Z,99.99
2017-04-15T04:10:20.450Z,99.99
2017-04-15T04:11:20.483Z,99.99
2017-04-15T04:12:20.513Z,99.99
2017-04-15T04:13:20.539Z,99.99
2017-04-15T04:14:20.566Z,99.99
2017-04-15T04:15:20.593Z,99.99
2017-04-15T04:16:20.627Z,99.99
2017-04-15T04:17:20.641Z,99.99
2017-04-15T04:18:20.679Z,99.99
2017-04-15T04:19:20.714Z,99.99
2017-04-15T04:20:20.738Z,99.99
2017-04-15T04:21:20.768Z,99.99
2017-04-15T04:22:20.805Z,99.99
2017-04-15T04:23:20.820Z,99.99
2017-04-15T04:24:20.844Z,99.99
2017-04-15T04:25:20.878Z,99.99
2017-04-15T04:26:20.904Z,99.99
2017-04-15T04:27:21.038Z,99.99
2017-04-15T04:28:20.967Z,99.99
2017-04-15T04:29:20.989Z,99.99
2017-04-15T04:30:21.020Z,99.99
2017-04-15T04:31:21.040Z,99.99
2017-04-15T04:32:21.083Z,99.99
2017-04-15T04:33:21.116Z,99.99
2017-04-15T04:34:21.136Z,99.99
2017-04-15T04:35:21.158Z,99.99
2017-04-15T04:36:21.364Z,99.99
2017-04-15T04:37:21.218Z,99.99
2017-04-15T04:38:21.239Z,99.99
2017-04-15T04:39:21.277Z,99.99
2017-04-15T04:40:21.557Z,99.99
2017-04-15T04:41:21.340Z,99.99
2017-04-15T04:42:21.361Z,99.99
2017-04-15T04:43:21.392Z,99.99
2017-04-15T04:44:21.424Z,99.99
2017-04-15T04:45:21.596Z,99.99
2017-04-15T04:46:21.479Z,99.99
2017-04-15T04:47:21.510Z,99.99
2017-04-15T04:48:21.531Z,99.99
2017-04-15T04:49:21.564Z,99.99
2017-04-15T04:50:21.597Z,99.99
2017-04-15T04:51:21.624Z,99.99
2017-04-15T04:52:21.653Z,99.99
2017-04-15T04:53:21.684Z,99.99
2017-04-15T04:54:21.700Z,99.99
2017-04-15T04:55:21.741Z,99.99
2017-04-15T04:56:21.769Z,99.92
2017-04-15T04:57:21.802Z,99.44
2017-04-15T04:58:21.821Z,99.07
2017-04-15T04:59:21.852Z,98.97
2017-04-15T05:00:21.881Z,98.79
2017-04-15T05:01:21.912Z,98.4
2017-04-15T05:02:21.929Z,98.4
2017-04-15T05:03:21.961Z,98.02
2017-04-15T05:04:21.995Z,97.92
2017-04-15T05:05:22.024Z,98.26
2017-04-15T05:06:22.056Z,97.5
2017-04-15T05:07:22.084Z,97.88
2017-04-15T05:08:22.120Z,97.69
2017-04-15T05:09:22.142Z,97.22
2017-04-15T05:10:22.173Z,96.74
2017-04-15T05:11:22.201Z,96.65
2017-04-15T05:12:22.231Z,96.84
2017-04-15T05:13:22.261Z,96.26
2017-04-15T05:14:22.285Z,96.17
2017-04-15T05:15:22.319Z,95.98
2017-04-15T05:16:22.348Z,95.84
2017-04-15T05:17:22.375Z,95.65
2017-04-15T05:18:22.406Z,95.84
2017-04-15T05:19:22.440Z,95.84
2017-04-15T05:20:22.464Z,95.65
2017-04-15T05:21:22.494Z,95.46
2017-04-15T05:22:22.521Z,94.7
2017-04-15T05:23:22.588Z,94.98
2017-04-15T05:24:22.581Z,94.7
2017-04-15T05:25:22.612Z,94.7
2017-04-15T05:26:22.631Z,94.6
2017-04-15T05:27:22.674Z,94.51
2017-04-15T05:28:22.707Z,94.6
2017-04-15T05:29:22.738Z,93.65
2017-04-15T05:30:22.759Z,93.84
2017-04-15T05:31:22.792Z,93.55
2017-04-15T05:32:22.827Z,93.55
2017-04-15T05:33:22.840Z,92.89
2017-04-15T05:34:22.885Z,92.8
2017-04-15T05:35:22.913Z,92.65
2017-04-15T05:36:22.935Z,92.46
2017-04-15T05:37:22.968Z,92.56
2017-04-15T05:38:23.002Z,92.36
2017-04-15T05:39:23.034Z,91.42
2017-04-15T05:40:23.058Z,91.51
2017-04-15T05:41:23.089Z,91.42
2017-04-15T05:42:23.117Z,91.22
2017-04-15T05:43:23.142Z,90.94
2017-04-15T05:44:23.183Z,90.66
2017-04-15T05:45:23.212Z,90.66
2017-04-15T05:46:23.239Z,90.47
2017-04-15T05:47:23.270Z,90.56
2017-04-15T05:48:23.303Z,90.47
2017-04-15T05:49:23.331Z,90.66
2017-04-15T05:50:23.354Z,90.84
2017-04-15T05:51:23.387Z,91.03
2017-04-15T05:52:23.418Z,91.42
2017-04-15T05:53:23.440Z,91.22
2017-04-15T05:54:23.478Z,91.61
2017-04-15T05:55:23.530Z,92.08
2017-04-15T05:56:23.538Z,92.18
2017-04-15T05:57:23.573Z,91.7
2017-04-15T05:58:23.600Z,91.51
2017-04-15T05:59:23.637Z,90.94
2017-04-15T06:00:23.839Z,91.32
2017-04-15T06:01:23.688Z,91.03
2017-04-15T06:02:23.720Z,90.66
2017-04-15T06:03:23.759Z,90.84
2017-04-15T06:04:23.776Z,90.75
2017-04-15T06:05:23.809Z,90.66
2017-04-15T06:06:23.845Z,91.13
2017-04-15T06:07:23.878Z,91.32
2017-04-15T06:08:24.016Z,91.03
2017-04-15T06:09:23.930Z,90.75
2017-04-15T06:10:23.958Z,90.84
2017-04-15T06:11:23.990Z,90.94
2017-04-15T06:12:24.023Z,91.03
2017-04-15T06:13:24.050Z,90.94
2017-04-15T06:14:24.077Z,91.03
2017-04-15T06:15:24.105Z,91.51
2017-04-15T06:16:24.144Z,90.94
2017-04-15T06:17:24.169Z,90.94
2017-04-15T06:18:24.196Z,91.32
2017-04-15T06:19:24.239Z,91.42
2017-04-15T06:20:24.256Z,91.03
2017-04-15T06:21:24.294Z,90.94
2017-04-15T06:22:24.321Z,90.94
2017-04-15T06:23:24.339Z,91.13
2017-04-15T06:24:24.383Z,91.32
2017-04-15T06:25:24.414Z,91.51
2017-04-15T06:26:24.439Z,91.8
2017-04-15T06:27:24.460Z,90.94
2017-04-15T06:28:24.499Z,91.03
2017-04-15T06:29:24.524Z,91.13
2017-04-15T06:30:24.958Z,91.13
2017-04-15T06:31:24.585Z,90.94
2017-04-15T06:32:24.620Z,90.84
2017-04-15T06:33:24.651Z,91.13
2017-04-15T06:34:24.677Z,91.51
2017-04-15T06:35:24.707Z,91.13
2017-04-15T06:36:24.760Z,91.13
2017-04-15T06:37:24.756Z,90.75
2017-04-15T06:38:24.781Z,91.13
2017-04-15T06:39:24.834Z,91.03
2017-04-15T06:40:24.860Z,90.66
2017-04-15T06:41:24.886Z,90.37
2017-04-15T06:42:24.915Z,90.75
2017-04-15T06:43:24.943Z,90.66
2017-04-15T06:44:24.977Z,90.28
2017-04-15T06:45:25.002Z,89.89
2017-04-15T06:46:25.034Z,89.99
2017-04-15T06:47:25.062Z,89.99
2017-04-15T06:48:25.099Z,89.7
2017-04-15T06:49:25.132Z,89.7
2017-04-15T06:50:25.149Z,89.23
2017-04-15T06:51:25.183Z,89.7
2017-04-15T06:52:25.215Z,89.8
2017-04-15T06:53:25.240Z,89.89
2017-04-15T06:54:25.269Z,89.7
2017-04-15T06:55:25.304Z,89.61
2017-04-15T06:56:25.331Z,89.7
2017-04-15T06:57:25.360Z,89.89
2017-04-15T06:58:25.393Z,89.99
2017-04-15T06:59:25.407Z,89.8
2017-04-15T07:00:25.512Z,89.8
2017-04-15T07:01:25.481Z,89.7
2017-04-15T07:02:25.512Z,89.32
2017-04-15T07:03:25.538Z,89.42
2017-04-15T07:04:25.568Z,89.32
2017-04-15T07:05:25.587Z,89.51
2017-04-15T07:06:25.632Z,89.42
2017-04-15T07:07:25.659Z,89.32
2017-04-15T07:08:25.700Z,89.14
2017-04-15T07:09:25.716Z,89.27
2017-04-15T07:10:25.750Z,89.32
2017-04-15T07:11:25.789Z,89.42
2017-04-15T07:12:25.807Z,88.89
2017-04-15T07:13:25.844Z,89.37
2017-04-15T07:14:25.878Z,88.79
2017-04-15T07:15:25.892Z,88.79
2017-04-15T07:16:25.930Z,88.23
2017-04-15T07:17:25.958Z,88.13
2017-04-15T07:18:25.988Z,87.94
2017-04-15T07:19:26.157Z,88.79
2017-04-15T07:20:26.046Z,88.51
2017-04-15T07:21:26.076Z,88.23
2017-04-15T07:22:26.107Z,89.27
2017-04-15T07:23:26.144Z,89.56
2017-04-15T07:24:26.175Z,89.41
2017-04-15T07:25:26.196Z,88.75
2017-04-15T07:26:26.234Z,88.27
2017-04-15T07:27:26.262Z,88.75
2017-04-15T07:28:26.312Z,89.22
2017-04-15T07:29:26.317Z,89.13
2017-04-15T07:30:26.347Z,89.7
2017-04-15T07:31:26.382Z,90.08
2017-04-15T07:32:26.408Z,90.84
2017-04-15T07:33:26.444Z,91.46
2017-04-15T07:34:26.470Z,92.13
2017-04-15T07:35:26.503Z,92.03
2017-04-15T07:36:26.534Z,92.6
2017-04-15T07:37:26.559Z,92.79
2017-04-15T07:38:26.595Z,93.37
2017-04-15T07:39:26.619Z,94.51
2017-04-15T07:40:26.652Z,95.56
2017-04-15T07:41:26.680Z,95.36
2017-04-15T07:42:26.711Z,95.36
2017-04-15T07:43:26.744Z,95.65
2017-04-15T07:44:26.770Z,95.84
2017-04-15T07:45:26.809Z,96.31
2017-04-15T07:46:26.834Z,96.98
2017-04-15T07:47:26.853Z,97.65
2017-04-15T07:48:26.888Z,98.03
2017-04-15T07:49:26.926Z,98.03
2017-04-15T07:50:26.969Z,98.46
2017-04-15T07:51:26.980Z,99.22
2017-04-15T07:52:27.012Z,99.99
2017-04-15T07:53:27.046Z,99.99
2017-04-15T07:54:27.073Z,99.99
2017-04-15T07:55:27.100Z,99.99
2017-04-15T07:56:27.134Z,99.99
2017-04-15T07:57:27.153Z,99.99
2017-04-15T07:58:27.194Z,99.99
2017-04-15T07:59:27.226Z,99.99
2017-04-15T08:00:27.242Z,99.99
2017-04-15T08:01:27.286Z,99.99
2017-04-15T08:02:27.313Z,99.99
2017-04-15T08:03:27.343Z,99.99
2017-04-15T08:04:27.371Z,99.99
2017-04-15T08:05:27.403Z,99.99
2017-04-15T08:06:27.432Z,99.99
2017-04-15T08:07:27.493Z,99.99
2017-04-15T08:08:27.496Z,99.99
2017-04-15T08:09:27.527Z,99.99
2017-04-15T08:10:27.541Z,99.99
2017-04-15T08:11:27.590Z,99.99
2017-04-15T08:12:27.613Z,99.99
2017-04-15T08:13:27.645Z,99.99
2017-04-15T08:14:27.673Z,99.99
2017-04-15T08:15:27.710Z,99.99
2017-04-15T08:16:27.742Z,99.99
2017-04-15T08:17:27.790Z,99.99
2017-04-15T08:18:27.803Z,99.99
2017-04-15T08:19:27.842Z,99.99
2017-04-15T08:20:27.853Z,99.99
2017-04-15T08:21:27.886Z,99.99
2017-04-15T08:22:27.946Z,99.99
2017-04-15T08:23:27.946Z,99.99
2017-04-15T08:24:27.976Z,99.99
2017-04-15T08:25:28.014Z,99.99
2017-04-15T08:26:28.034Z,99.99
2017-04-15T08:27:28.069Z,99.99
2017-04-15T08:28:28.103Z,99.99
2017-04-15T08:29:28.133Z,99.99
2017-04-15T08:30:28.154Z,99.99
2017-04-15T08:31:28.186Z,99.99
2017-04-15T08:32:28.212Z,99.99
2017-04-15T08:33:28.250Z,99.99
2017-04-15T08:34:28.278Z,99.99
2017-04-15T08:35:28.305Z,99.99
2017-04-15T08:36:28.339Z,99.99
2017-04-15T08:37:28.372Z,99.99
2017-04-15T08:38:28.401Z,99.99
2017-04-15T08:39:28.432Z,99.99
2017-04-15T08:40:28.470Z,99.99
2017-04-15T08:41:28.480Z,99.99
2017-04-15T08:42:28.519Z,99.99
2017-04-15T08:43:28.549Z,99.99
2017-04-15T08:44:28.586Z,99.99
2017-04-15T08:45:28.611Z,99.99
2017-04-15T08:46:28.647Z,99.99
2017-04-15T08:47:28.681Z,99.99
2017-04-15T08:48:28.704Z,99.99
2017-04-15T08:49:28.739Z,99.99
2017-04-15T08:50:28.933Z,99.99
2017-04-15T08:51:28.796Z,99.99
2017-04-15T08:52:28.814Z,99.99
2017-04-15T08:53:28.848Z,99.99
2017-04-15T08:54:28.888Z,99.99
2017-04-15T08:55:28.917Z,99.99
2017-04-15T08:56:28.944Z,99.99
2017-04-15T08:57:28.978Z,99.75
2017-04-15T08:58:29.008Z,99.27
2017-04-15T08:59:29.050Z,98.99
2017-04-15T09:00:29.072Z,99.32
2017-04-15T09:01:29.103Z,99.27
2017-04-15T09:02:29.131Z,99.27
2017-04-15T09:03:29.162Z,99.18
2017-04-15T09:04:29.194Z,99.99
2017-04-15T09:05:29.226Z,99.99
2017-04-15T09:06:29.245Z,99.65
2017-04-15T09:07:29.271Z,99.99
2017-04-15T09:08:29.315Z,99.99
2017-04-15T09:09:29.348Z,99.99
2017-04-15T09:10:29.400Z,99.99
2017-04-15T09:11:29.407Z,99.51
2017-04-15T09:12:29.444Z,98.75
2017-04-15T09:13:29.475Z,98.75
2017-04-15T09:14:29.502Z,98.75
2017-04-15T09:15:29.535Z,99.04
2017-04-15T09:16:29.553Z,99.32
2017-04-15T09:17:29.599Z,99.46
2017-04-15T09:18:29.644Z,99.75
2017-04-15T09:19:29.657Z,99.99
2017-04-15T09:20:29.686Z,99.99
2017-04-15T09:21:29.718Z,99.99
2017-04-15T09:22:29.750Z,99.99
2017-04-15T09:23:29.782Z,99.99
2017-04-15T09:24:29.811Z,99.99
2017-04-15T09:25:29.844Z,99.99
2017-04-15T09:26:29.874Z,99.99
2017-04-15T09:27:29.920Z,99.99
2017-04-15T09:28:29.938Z,99.99
2017-04-15T09:29:29.969Z,99.99
2017-04-15T09:30:29.995Z,99.99
2017-04-15T09:31:30.028Z,99.99
2017-04-15T09:32:30.290Z,99.99
2017-04-15T09:33:30.097Z,99.99
2017-04-15T09:34:30.134Z,99.99
2017-04-15T09:35:30.153Z,99.99
2017-04-15T09:36:30.194Z,99.99
2017-04-15T09:37:30.209Z,99.99
2017-04-15T09:38:30.247Z,99.99
2017-04-15T09:39:30.277Z,99.99
2017-04-15T09:40:30.290Z,99.99
2017-04-15T09:41:30.324Z,99.99
2017-04-15T09:42:30.355Z,99.99
2017-04-15T09:43:30.405Z,99.99
2017-04-15T09:44:30.431Z,99.99
2017-04-15T09:45:30.455Z,99.99
2017-04-15T09:46:30.495Z,99.99
2017-04-15T09:47:30.526Z,99.99
2017-04-15T09:48:30.551Z,99.99
2017-04-15T09:49:30.585Z,99.99
2017-04-15T09:50:30.610Z,99.99
2017-04-15T09:51:30.643Z,99.99
2017-04-15T09:52:30.671Z,99.99
2017-04-15T09:53:30.705Z,99.99
2017-04-15T09:54:30.735Z,99.99
2017-04-15T09:55:30.769Z,99.99
2017-04-15T09:56:30.799Z,99.99
2017-04-15T09:57:30.831Z,99.99
2017-04-15T09:58:30.864Z,99.99
2017-04-15T09:59:30.894Z,99.99
2017-04-15T10:00:30.960Z,99.99
2017-04-15T10:01:30.951Z,99.99
2017-04-15T10:02:31.070Z,99.99
2017-04-15T10:03:31.015Z,99.99
2017-04-15T10:04:31.045Z,99.99
2017-04-15T10:05:31.073Z,99.99
2017-04-15T10:06:31.127Z,99.99
2017-04-15T10:07:31.141Z,99.99
2017-04-15T10:08:31.155Z,99.99
2017-04-15T10:09:31.198Z,99.99
2017-04-15T10:10:31.227Z,99.99
2017-04-15T10:11:31.266Z,99.99
2017-04-15T10:12:31.289Z,99.99
2017-04-15T10:13:31.326Z,99.99
2017-04-15T10:14:31.365Z,99.99
2017-04-15T10:15:31.483Z,99.99
2017-04-15T10:16:31.411Z,99.99
2017-04-15T10:17:31.447Z,99.99
2017-04-15T10:18:31.480Z,99.99
2017-04-15T10:19:31.505Z,99.99
2017-04-15T10:20:31.550Z,99.99
2017-04-15T10:21:31.564Z,99.99
2017-04-15T10:22:31.604Z,99.99
2017-04-15T10:23:31.627Z,99.99
2017-04-15T10:24:31.674Z,99.99
2017-04-15T10:25:31.689Z,99.99
2017-04-15T10:26:31.720Z,99.99
2017-04-15T10:27:31.749Z,99.41
2017-04-15T10:28:31.785Z,98.56
2017-04-15T10:29:31.808Z,99.04
2017-04-15T10:30:31.845Z,99.22
2017-04-15T10:31:31.881Z,99.99
2017-04-15T10:32:31.913Z,99.99
2017-04-15T10:33:31.913Z,99.99
2017-04-15T10:34:31.975Z,99.99
2017-04-15T10:35:32.018Z,99.99
2017-04-15T10:36:32.030Z,99.99
2017-04-15T10:37:32.276Z,99.41
2017-04-15T10:38:32.089Z,99.41
2017-04-15T10:39:32.343Z,99.32
2017-04-15T10:40:32.144Z,99.32
2017-04-15T10:41:32.199Z,99.51
2017-04-15T10:42:32.217Z,99.32
2017-04-15T10:43:32.447Z,99.99
2017-04-15T10:44:32.281Z,99.22
2017-04-15T10:45:32.307Z,99.04
2017-04-15T10:46:32.337Z,97.94
2017-04-15T10:47:32.362Z,97.56
2017-04-15T10:48:32.409Z,97.08
2017-04-15T10:49:32.443Z,96.7
2017-04-15T10:50:32.524Z,96.08
2017-04-15T10:51:32.498Z,95.98
2017-04-15T10:52:32.517Z,95.89
2017-04-15T10:53:32.541Z,95.51
2017-04-15T10:54:32.611Z,95.7
2017-04-15T10:55:32.653Z,95.61
2017-04-15T10:56:32.664Z,95.98
2017-04-15T10:57:32.702Z,95.79
2017-04-15T10:58:32.715Z,96.61
2017-04-15T10:59:32.776Z,96.89
2017-04-15T11:00:32.785Z,96.98
2017-04-15T11:01:32.803Z,98.03
2017-04-15T11:02:32.844Z,98.13
2017-04-15T11:03:32.900Z,98.32
2017-04-15T11:04:32.917Z,98.03
2017-04-15T11:05:33.085Z,98.46
2017-04-15T11:06:32.966Z,98.27
2017-04-15T11:07:33.009Z,99.04
2017-04-15T11:08:33.031Z,99.41
2017-04-15T11:09:33.061Z,99.51
2017-04-15T11:10:33.102Z,99.51
2017-04-15T11:11:33.124Z,99.99
2017-04-15T11:12:33.222Z,99.99
2017-04-15T11:13:33.196Z,99.99
2017-04-15T11:14:33.227Z,99.99
2017-04-15T11:15:33.249Z,99.99
2017-04-15T11:16:33.278Z,99.99
2017-04-15T11:17:33.287Z,99.99
2017-04-15T11:18:33.362Z,99.99
2017-04-15T11:19:33.386Z,99.99
2017-04-15T11:20:33.412Z,99.99
2017-04-15T11:21:33.443Z,99.99
2017-04-15T11:22:33.457Z,99.99
2017-04-15T11:23:33.486Z,99.99
2017-04-15T11:24:33.512Z,99.99
2017-04-15T11:25:33.568Z,99.99
2017-04-15T11:26:33.588Z,99.99
2017-04-15T11:27:33.599Z,99.99
2017-04-15T11:28:33.657Z,99.99
2017-04-15T11:29:33.674Z,99.99
2017-04-15T11:30:33.722Z,99.99
2017-04-15T11:31:33.746Z,99.99
2017-04-15T11:32:33.777Z,99.99
2017-04-15T11:33:33.818Z,99.99
2017-04-15T11:34:34.046Z,99.99
2017-04-15T11:35:33.849Z,99.99
2017-04-15T11:36:33.943Z,99.99
2017-04-15T11:37:33.958Z,99.99
2017-04-15T11:38:33.954Z,99.99
2017-04-15T11:39:33.989Z,99.99
2017-04-15T11:40:34.026Z,99.99
2017-04-15T11:41:34.052Z,99.99
2017-04-15T11:42:34.087Z,99.99
2017-04-15T11:43:34.115Z,99.99
2017-04-15T11:44:34.142Z,99.99
2017-04-15T11:45:34.159Z,99.99
2017-04-15T11:46:34.209Z,99.99
2017-04-15T11:47:34.246Z,99.99
2017-04-15T11:48:34.266Z,99.99
2017-04-15T11:49:34.297Z,99.99
2017-04-15T11:50:34.323Z,99.99
2017-04-15T11:51:34.443Z,99.99
2017-04-15T11:52:34.389Z,99.99
2017-04-15T11:53:34.425Z,99.99
2017-04-15T11:54:34.448Z,99.99
2017-04-15T11:55:34.477Z,99.99
2017-04-15T11:56:34.511Z,99.99
2017-04-15T11:57:34.547Z,99.99
2017-04-15T11:58:34.573Z,99.99
2017-04-15T11:59:34.607Z,99.99
2017-04-15T12:00:34.650Z,99.99
2017-04-15T12:01:34.662Z,99.99
2017-04-15T12:02:34.695Z,99.99
2017-04-15T12:03:34.733Z,99.99
2017-04-15T12:04:34.774Z,99.99
2017-04-15T12:05:34.779Z,99.99
2017-04-15T12:06:34.806Z,99.99
2017-04-15T12:07:34.855Z,99.99
2017-04-15T12:08:34.858Z,99.08
2017-04-15T12:09:34.903Z,98.13
2017-04-15T12:10:36.360Z,97.13
2017-04-15T12:11:34.975Z,96.08
2017-04-15T12:12:35.043Z,95.32
2017-04-15T12:13:35.056Z,95.79
2017-04-15T12:14:35.058Z,94.74
2017-04-15T12:15:35.107Z,94.93
2017-04-15T12:16:35.137Z,94.22
2017-04-15T12:17:35.155Z,93.45
2017-04-15T12:18:35.201Z,92.59
2017-04-15T12:19:35.628Z,91.54
2017-04-15T12:20:35.264Z,90.34
2017-04-15T12:21:35.281Z,90.34
2017-04-15T12:22:35.313Z,89.67
2017-04-15T12:23:35.344Z,89.87
2017-04-15T12:24:35.598Z,89.96
2017-04-15T12:25:35.426Z,89.77
2017-04-15T12:26:35.460Z,90.53
2017-04-15T12:27:35.492Z,90.34
2017-04-15T12:28:35.520Z,90.2
2017-04-15T12:29:35.564Z,91.54
2017-04-15T12:30:35.594Z,92.11
2017-04-15T12:31:35.620Z,92.74
2017-04-15T12:32:35.674Z,93.02
2017-04-15T12:33:35.682Z,93.41
2017-04-15T12:34:35.725Z,93.5
2017-04-15T12:35:35.756Z,93.88
2017-04-15T12:36:35.781Z,93.5
2017-04-15T12:37:35.832Z,93.12
2017-04-15T12:38:35.855Z,91.5
2017-04-15T12:39:35.887Z,91.78
2017-04-15T12:40:35.914Z,91.5
2017-04-15T12:41:35.934Z,91.59
2017-04-15T12:42:35.985Z,92.16
2017-04-15T12:43:36.014Z,92.64
2017-04-15T12:44:36.026Z,93.12
2017-04-15T12:45:36.065Z,93.74
2017-04-15T12:46:36.116Z,94.12
2017-04-15T12:47:36.136Z,94.03
2017-04-15T12:48:36.176Z,94.22
2017-04-15T12:49:36.224Z,93.55
2017-04-15T12:50:36.252Z,92.83
2017-04-15T12:51:36.279Z,93.12
2017-04-15T12:52:36.307Z,94.46
2017-04-15T12:53:36.327Z,94.07
2017-04-15T12:54:36.365Z,93.51